createdAt,value
2022-09-03T00:00:56.361Z,62.43
2022-09-03T00:05:08.983Z,62.67
2022-09-03T00:09:19.251Z,62.90
2022-09-03T00:13:27.762Z,62.76
2022-09-03T00:17:37.422Z,62.92
2022-09-03T00:21:47.383Z,62.92
2022-09-03T00:25:58.180Z,63.39
2022-09-03T00:30:07.217Z,63.40
2022-09-03T00:34:31.503Z,62.94
2022-09-03T00:38:35.252Z,63.35
2022-09-03T00:42:48.871Z,63.36
2022-09-03T00:46:57.841Z,63.56
2022-09-03T00:51:17.583Z,63.29
2022-09-03T00:55:34.004Z,63.79
2022-09-03T00:59:43.165Z,63.97
2022-09-03T01:03:57.528Z,63.91
2022-09-03T01:08:12.445Z,64.06
2022-09-03T01:12:26.719Z,63.81
2022-09-03T01:16:37.967Z,64.01
2022-09-03T01:20:51.579Z,63.99
2022-09-03T01:25:13.446Z,64.00
2022-09-03T01:29:26.964Z,64.08
2022-09-03T01:33:36.328Z,63.98
2022-09-03T01:37:48.890Z,64.44
2022-09-03T01:42:20.955Z,64.39
2022-09-03T01:46:28.572Z,64.84
2022-09-03T01:50:44.731Z,64.90
2022-09-03T01:55:01.383Z,64.43
2022-09-03T01:59:09.915Z,64.84
2022-09-03T02:03:16.106Z,64.78
2022-09-03T02:07:19.612Z,64.76
2022-09-03T02:11:22.711Z,65.22
2022-09-03T02:15:28.640Z,65.12
2022-09-03T02:19:35.140Z,65.16
2022-09-03T02:23:41.481Z,65.30
2022-09-03T02:27:45.657Z,65.48
2022-09-03T02:31:49.608Z,65.48
2022-09-03T02:35:55.386Z,66.07
2022-09-03T02:39:59.220Z,65.67
2022-09-03T02:44:08.148Z,66.08
2022-09-03T02:48:13.414Z,65.63
2022-09-03T02:52:18.528Z,65.63
2022-09-03T02:56:25.098Z,65.69
2022-09-03T03:00:29.254Z,65.85
2022-09-03T03:04:33.803Z,65.74
2022-09-03T03:08:38.692Z,66.00
2022-09-03T03:12:42.576Z,66.31
2022-09-03T03:16:46.330Z,66.03
2022-09-03T03:20:49.697Z,66.19
2022-09-03T03:24:56.174Z,66.50
2022-09-03T03:29:02.976Z,66.47
2022-09-03T03:33:06.866Z,67.12
2022-09-03T03:37:10.160Z,67.02
2022-09-03T03:41:18.300Z,66.81
2022-09-03T03:45:21.633Z,67.02
2022-09-03T03:49:24.781Z,67.56
2022-09-03T03:53:27.796Z,67.38
2022-09-03T03:57:33.705Z,67.56
2022-09-03T04:01:36.727Z,67.60
2022-09-03T04:05:46.215Z,68.02
2022-09-03T04:09:52.310Z,68.13
2022-09-03T04:13:57.478Z,68.09
2022-09-03T04:18:00.772Z,67.89
2022-09-03T04:22:04.076Z,67.74
2022-09-03T04:26:09.117Z,67.59
2022-09-03T04:30:14.398Z,67.48
2022-09-03T04:34:18.359Z,67.39
2022-09-03T04:38:21.995Z,67.40
2022-09-03T04:42:25.183Z,67.55
2022-09-03T04:46:34.278Z,67.54
2022-09-03T04:50:37.553Z,67.93
2022-09-03T04:54:41.234Z,67.99
2022-09-03T04:58:44.894Z,68.29
2022-09-03T05:02:52.583Z,68.38
2022-09-03T05:06:55.700Z,68.58
2022-09-03T05:11:02.535Z,68.72
2022-09-03T05:15:07.154Z,68.53
2022-09-03T05:19:14.876Z,68.25
2022-09-03T05:23:20.411Z,68.02
2022-09-03T05:27:24.332Z,68.29
2022-09-03T05:31:32.391Z,68.35
2022-09-03T05:35:36.988Z,68.58
2022-09-03T05:39:40.829Z,68.17
2022-09-03T05:43:45.423Z,68.12
2022-09-03T05:47:48.996Z,68.14
2022-09-03T05:51:53.514Z,68.23
2022-09-03T05:55:58.369Z,67.55
2022-09-03T06:00:01.999Z,67.06
2022-09-03T06:04:07.445Z,67.14
2022-09-03T06:08:13.000Z,67.01
2022-09-03T06:12:16.596Z,66.16
2022-09-03T06:16:29.048Z,66.11
2022-09-03T06:20:37.295Z,64.71
2022-09-03T06:24:42.209Z,65.60
2022-09-03T06:28:45.627Z,64.25
2022-09-03T06:32:51.055Z,62.57
2022-09-03T06:36:54.584Z,62.83
2022-09-03T06:41:03.860Z,62.72
2022-09-03T06:45:12.100Z,61.47
2022-09-03T06:49:16.073Z,60.86
2022-09-03T06:53:19.403Z,60.75
2022-09-03T06:57:24.290Z,59.20
2022-09-03T07:01:31.670Z,60.35
2022-09-03T07:05:35.436Z,59.07
2022-09-03T07:09:39.046Z,58.66
2022-09-03T07:13:45.108Z,57.89
2022-09-03T07:17:48.635Z,56.33
2022-09-03T07:21:52.158Z,54.93
2022-09-03T07:25:57.228Z,54.62
2022-09-03T07:30:03.136Z,55.30
2022-09-03T07:34:10.330Z,54.15
2022-09-03T07:38:14.304Z,53.56
2022-09-03T07:42:17.915Z,53.51
2022-09-03T07:46:25.054Z,53.63
2022-09-03T07:50:30.771Z,53.15
2022-09-03T07:54:34.442Z,52.57
2022-09-03T07:58:39.311Z,51.14
2022-09-03T08:02:46.339Z,49.93
2022-09-03T08:06:50.182Z,48.86
2022-09-03T08:10:53.739Z,48.76
2022-09-03T08:14:58.575Z,49.75
2022-09-03T08:19:03.527Z,48.90
2022-09-03T08:23:07.067Z,48.74
2022-09-03T08:27:10.436Z,45.53
2022-09-03T08:31:16.018Z,46.81
2022-09-03T08:35:22.115Z,45.93
2022-09-03T08:45:43.701Z,49.98
2022-09-03T08:49:50.962Z,42.29
2022-09-03T08:53:58.080Z,45.35
2022-09-03T08:58:07.072Z,44.26
2022-09-03T09:02:26.008Z,45.21
2022-09-03T09:06:37.121Z,45.28
2022-09-03T09:10:48.371Z,45.54
2022-09-03T09:15:03.065Z,45.57
2022-09-03T09:19:19.743Z,44.88
2022-09-03T09:23:29.699Z,44.42
2022-09-03T09:27:35.013Z,41.37
2022-09-03T09:31:39.983Z,40.48
2022-09-03T09:35:43.903Z,38.49
2022-09-03T09:39:58.940Z,41.46
2022-09-03T09:44:05.398Z,39.43
2022-09-03T09:48:18.348Z,41.73
2022-09-03T09:52:26.309Z,38.19
2022-09-03T09:56:29.689Z,38.07
2022-09-03T10:00:37.584Z,36.96
2022-09-03T10:04:44.420Z,36.53
2022-09-03T10:08:47.820Z,37.50
2022-09-03T10:13:00.001Z,38.00
2022-09-03T10:17:11.286Z,39.16
2022-09-03T10:21:21.592Z,37.73
2022-09-03T10:25:28.687Z,37.38
2022-09-03T10:29:32.188Z,37.61
2022-09-03T10:33:44.829Z,38.49
2022-09-03T10:37:56.547Z,37.15
2022-09-03T10:42:13.922Z,39.42
2022-09-03T10:46:24.006Z,35.50
2022-09-03T10:50:33.591Z,36.08
2022-09-03T10:54:52.908Z,37.04
2022-09-03T10:59:06.923Z,37.05
2022-09-03T11:03:40.839Z,38.09
2022-09-03T11:07:50.119Z,36.58
2022-09-03T11:11:56.809Z,35.88
2022-09-03T11:16:02.532Z,34.57
2022-09-03T11:20:16.317Z,37.76
2022-09-03T11:24:24.563Z,35.82
2022-09-03T11:28:40.611Z,38.14
2022-09-03T11:32:55.396Z,36.61
2022-09-03T11:37:19.977Z,37.78
2022-09-03T11:41:28.395Z,37.95
2022-09-03T11:45:37.686Z,36.83
2022-09-03T11:49:47.601Z,36.83
2022-09-03T11:53:58.609Z,35.98
2022-09-03T11:58:21.342Z,36.81
2022-09-03T12:02:30.903Z,36.59
2022-09-03T12:06:52.386Z,37.01
2022-09-03T12:11:01.128Z,37.04
2022-09-03T12:15:16.646Z,36.09
2022-09-03T12:19:27.630Z,36.19
2022-09-03T12:23:34.160Z,35.56
2022-09-03T12:44:20.593Z,34.76
2022-09-03T12:49:37.337Z,36.49
2022-09-03T12:55:12.829Z,36.50
2022-09-03T13:00:07.786Z,35.69
2022-09-03T13:10:08.991Z,35.70
2022-09-03T13:15:05.927Z,36.80
2022-09-03T13:19:21.458Z,34.75
2022-09-03T13:23:40.605Z,36.56
2022-09-03T13:27:55.108Z,33.73
2022-09-03T13:32:06.379Z,35.21
2022-09-03T13:36:19.606Z,36.23
2022-09-03T13:40:27.500Z,36.26
2022-09-03T13:44:42.604Z,35.95
2022-09-03T13:49:04.792Z,34.47
2022-09-03T13:53:17.953Z,35.50
2022-09-03T13:57:29.552Z,35.22
2022-09-03T14:01:47.544Z,36.06
2022-09-03T14:06:07.114Z,34.85
2022-09-03T14:10:23.681Z,36.32
2022-09-03T14:18:45.860Z,35.24
2022-09-03T14:22:54.748Z,33.62
2022-09-03T14:27:03.262Z,33.91
2022-09-03T14:31:15.555Z,34.78
2022-09-03T14:35:30.330Z,37.88
2022-09-03T14:39:36.251Z,35.87
2022-09-03T14:44:05.593Z,37.72
2022-09-03T14:48:32.066Z,38.36
2022-09-03T14:52:55.331Z,36.95
2022-09-03T14:57:14.721Z,34.31
2022-09-03T15:01:29.991Z,36.05
2022-09-03T15:05:52.235Z,35.00
2022-09-03T15:10:06.268Z,35.24
2022-09-03T15:14:15.510Z,34.96
2022-09-03T15:18:30.914Z,34.60
2022-09-03T15:22:50.036Z,35.56
2022-09-03T15:27:06.844Z,36.07
2022-09-03T15:31:20.048Z,36.61
2022-09-03T15:35:45.788Z,37.52
2022-09-03T15:40:01.301Z,37.37
2022-09-03T15:44:10.210Z,37.59
2022-09-03T15:48:27.886Z,38.52
2022-09-03T15:52:41.166Z,38.37
2022-09-03T15:56:56.537Z,38.63
2022-09-03T16:01:04.803Z,38.11
2022-09-03T16:05:16.939Z,39.62
2022-09-03T16:09:32.185Z,40.28
2022-09-03T16:13:45.818Z,41.10
2022-09-03T16:17:57.594Z,42.34
2022-09-03T16:22:05.551Z,42.18
2022-09-03T16:26:18.052Z,41.79
2022-09-03T16:30:24.111Z,43.13
2022-09-03T16:34:37.163Z,42.85
2022-09-03T16:38:54.183Z,43.16
2022-09-03T16:43:29.889Z,42.71
2022-09-03T16:47:43.080Z,43.43
2022-09-03T16:51:56.499Z,43.97
2022-09-03T16:56:16.108Z,44.05
2022-09-03T17:00:22.838Z,45.07
2022-09-03T17:04:50.061Z,45.25
2022-09-03T17:09:04.290Z,45.65
2022-09-03T17:13:35.289Z,46.26
2022-09-03T17:18:10.162Z,46.22
2022-09-03T17:22:27.875Z,46.77
2022-09-03T17:26:40.475Z,47.58
2022-09-03T17:30:50.301Z,47.11
2022-09-03T17:35:06.557Z,47.69
2022-09-03T17:39:51.872Z,48.08
2022-09-03T17:44:07.019Z,49.18
2022-09-03T17:48:16.122Z,48.09
2022-09-03T17:52:30.983Z,49.67
2022-09-03T17:56:45.909Z,49.66
2022-09-03T18:00:58.723Z,50.49
2022-09-03T18:05:09.327Z,51.66
2022-09-03T18:09:26.553Z,51.66
2022-09-03T18:13:44.322Z,51.32
2022-09-03T18:17:55.262Z,51.96
2022-09-03T18:22:19.678Z,54.35
2022-09-03T18:26:47.834Z,54.21
2022-09-03T18:31:08.979Z,56.03
2022-09-03T18:35:30.211Z,56.17
2022-09-03T18:39:51.556Z,55.91
2022-09-03T18:44:26.097Z,55.34
2022-09-03T18:48:55.166Z,55.05
2022-09-03T18:53:21.379Z,58.02
2022-09-03T18:57:46.538Z,58.77
2022-09-03T19:02:09.486Z,59.56
2022-09-03T19:06:42.671Z,59.61
2022-09-03T19:11:10.024Z,61.09
2022-09-03T19:15:35.606Z,62.15
2022-09-03T19:20:21.848Z,61.39
2022-09-03T19:24:47.483Z,63.36
2022-09-03T19:29:15.574Z,65.40
2022-09-03T19:33:45.359Z,65.43
2022-09-03T19:38:18.160Z,64.68
2022-09-03T19:42:52.414Z,66.57
2022-09-03T19:47:17.548Z,67.89
2022-09-03T19:51:44.831Z,66.21
2022-09-03T19:56:12.007Z,67.72
2022-09-03T20:00:33.582Z,69.40
2022-09-03T20:04:58.731Z,68.57
2022-09-03T20:09:26.755Z,68.75
2022-09-03T20:13:52.128Z,68.71
2022-09-03T20:18:05.747Z,69.02
2022-09-03T20:22:17.511Z,68.51
2022-09-03T20:26:39.586Z,68.61
2022-09-03T20:30:52.036Z,69.45
2022-09-03T20:35:04.342Z,70.19
2022-09-03T20:39:30.150Z,69.62
2022-09-03T20:43:45.430Z,71.14
2022-09-03T20:48:04.023Z,70.75
2022-09-03T20:52:14.123Z,71.56
2022-09-03T20:56:27.051Z,71.92
2022-09-03T21:00:35.314Z,69.18
2022-09-03T21:04:56.911Z,71.72
2022-09-03T21:09:17.864Z,71.22
2022-09-03T21:13:38.232Z,71.68
2022-09-03T21:17:54.167Z,71.59
2022-09-03T21:22:05.972Z,71.56
2022-09-03T21:26:15.989Z,71.57
2022-09-03T21:30:20.812Z,71.96
2022-09-03T21:34:31.573Z,72.39
2022-09-03T21:38:39.561Z,72.32
2022-09-03T21:42:47.593Z,72.75
2022-09-03T21:46:56.361Z,72.20
2022-09-03T21:51:02.440Z,72.21
2022-09-03T21:55:23.764Z,71.83
2022-09-03T21:59:56.717Z,71.56
2022-09-03T22:04:00.446Z,72.30
2022-09-03T22:08:18.424Z,72.03
2022-09-03T22:12:31.687Z,72.15
2022-09-03T22:16:40.887Z,72.82
2022-09-03T22:21:00.771Z,72.67
2022-09-03T22:25:10.760Z,73.15
2022-09-03T22:29:29.343Z,72.55
2022-09-03T22:33:40.201Z,73.13
2022-09-03T22:37:59.269Z,72.97
2022-09-03T22:42:30.038Z,72.56
2022-09-03T22:46:43.309Z,72.94
2022-09-03T22:50:54.813Z,73.52
2022-09-03T22:55:16.958Z,72.84
2022-09-03T22:59:25.643Z,73.10
2022-09-03T23:03:42.621Z,72.76
2022-09-03T23:07:54.295Z,72.91
2022-09-03T23:12:02.622Z,73.06
2022-09-03T23:16:12.761Z,72.88
2022-09-03T23:20:23.076Z,72.82
2022-09-03T23:24:30.634Z,72.89
2022-09-03T23:28:37.220Z,73.12
2022-09-03T23:32:40.717Z,73.32
2022-09-03T23:37:32.086Z,72.75
2022-09-03T23:41:43.325Z,73.37
2022-09-03T23:46:01.080Z,73.53
2022-09-03T23:50:13.045Z,73.54
2022-09-03T23:54:25.998Z,73.25
2022-09-03T23:58:34.803Z,71.40
